createdAt,value
2019-02-18T00:00:52.047Z,1016.42
2019-02-18T00:01:52.048Z,1016.42
2019-02-18T00:02:51.928Z,1016.44
2019-02-18T00:03:51.930Z,1016.41
2019-02-18T00:04:51.806Z,1016.40
2019-02-18T00:05:51.879Z,1016.39
2019-02-18T00:06:51.810Z,1016.39
2019-02-18T00:07:51.687Z,1016.41
2019-02-18T00:08:51.687Z,1016.42
2019-02-18T00:09:51.566Z,1016.43
2019-02-18T00:10:51.563Z,1016.42
2019-02-18T00:11:51.564Z,1016.42
2019-02-18T00:12:51.445Z,1016.41
2019-02-18T00:13:51.442Z,1016.42
2019-02-18T00:14:51.325Z,1016.48
2019-02-18T00:15:51.329Z,1016.44
2019-02-18T00:16:51.329Z,1016.45
2019-02-18T00:17:51.203Z,1016.41
2019-02-18T00:18:51.203Z,1016.45
2019-02-18T00:19:51.080Z,1016.43
2019-02-18T00:20:51.085Z,1016.41
2019-02-18T00:21:51.087Z,1016.43
2019-02-18T00:22:50.964Z,1016.41
2019-02-18T00:23:50.962Z,1016.40
2019-02-18T00:24:50.850Z,1016.41
2019-02-18T00:25:50.844Z,1016.44
2019-02-18T00:26:50.838Z,1016.42
2019-02-18T00:27:50.719Z,1016.40
2019-02-18T00:28:50.721Z,1016.41
2019-02-18T00:29:50.724Z,1016.41
2019-02-18T00:30:50.681Z,1016.39
2019-02-18T00:31:50.682Z,1016.37
2019-02-18T00:32:50.605Z,1016.39
2019-02-18T00:33:50.601Z,1016.39
2019-02-18T00:34:50.360Z,1016.41
2019-02-18T00:35:50.364Z,1016.43
2019-02-18T00:36:50.361Z,1016.42
2019-02-18T00:37:50.246Z,1016.43
2019-02-18T00:38:50.237Z,1016.41
2019-02-18T00:39:50.126Z,1016.46
2019-02-18T00:40:50.117Z,1016.44
2019-02-18T00:41:50.121Z,1016.44
2019-02-18T00:42:50.003Z,1016.43
2019-02-18T00:43:50.002Z,1016.40
2019-02-18T00:44:49.879Z,1016.42
2019-02-18T00:45:49.877Z,1016.39
2019-02-18T00:46:49.875Z,1016.40
2019-02-18T00:47:49.761Z,1016.39
2019-02-18T00:48:49.757Z,1016.39
2019-02-18T00:49:49.637Z,1016.40
2019-02-18T00:50:49.638Z,1016.41
2019-02-18T00:51:49.640Z,1016.42
2019-02-18T00:52:49.516Z,1016.42
2019-02-18T00:53:49.516Z,1016.41
2019-02-18T00:54:49.399Z,1016.44
2019-02-18T00:55:49.404Z,1016.43
2019-02-18T00:56:49.392Z,1016.42
2019-02-18T00:57:49.278Z,1016.43
2019-02-18T00:58:49.276Z,1016.41
2019-02-18T00:59:49.153Z,1016.40
2019-02-18T01:00:49.157Z,1016.42
2019-02-18T01:01:49.154Z,1016.37
2019-02-18T01:02:49.033Z,1016.37
2019-02-18T01:03:49.035Z,1016.38
2019-02-18T01:04:48.913Z,1016.38
2019-02-18T01:05:48.912Z,1016.40
2019-02-18T01:06:48.919Z,1016.40
2019-02-18T01:07:48.792Z,1016.43
2019-02-18T01:08:48.793Z,1016.42
2019-02-18T01:09:48.680Z,1016.42
2019-02-18T01:10:48.672Z,1016.40
2019-02-18T01:11:48.731Z,1016.41
2019-02-18T01:12:48.556Z,1016.43
2019-02-18T01:13:48.551Z,1016.41
2019-02-18T01:14:48.430Z,1016.37
2019-02-18T01:15:48.428Z,1016.39
2019-02-18T01:16:48.429Z,1016.37
2019-02-18T01:17:48.316Z,1016.37
2019-02-18T01:18:48.310Z,1016.40
2019-02-18T01:19:48.190Z,1016.38
2019-02-18T01:20:48.186Z,1016.38
2019-02-18T01:21:48.192Z,1016.39
2019-02-18T01:22:48.070Z,1016.36
2019-02-18T01:23:48.070Z,1016.33
2019-02-18T01:24:47.947Z,1016.37
2019-02-18T01:25:47.950Z,1016.34
2019-02-18T01:26:47.951Z,1016.32
2019-02-18T01:27:47.829Z,1016.34
2019-02-18T01:28:47.831Z,1016.34
2019-02-18T01:29:47.707Z,1016.31
2019-02-18T01:30:47.707Z,1016.27
2019-02-18T01:31:47.709Z,1016.29
2019-02-18T01:32:47.592Z,1016.31
2019-02-18T01:33:47.584Z,1016.33
2019-02-18T01:34:47.465Z,1016.35
2019-02-18T01:35:47.467Z,1016.31
2019-02-18T01:36:47.466Z,1016.30
2019-02-18T01:37:47.360Z,1016.29
2019-02-18T01:38:47.343Z,1016.29
2019-02-18T01:39:47.233Z,1016.31
2019-02-18T01:40:47.225Z,1016.32
2019-02-18T01:41:47.224Z,1016.30
2019-02-18T01:42:47.103Z,1016.30
2019-02-18T01:43:48.062Z,1016.27
2019-02-18T01:44:46.983Z,1016.24
2019-02-18T01:45:47.040Z,1016.26
2019-02-18T01:46:46.985Z,1016.23
2019-02-18T01:47:46.864Z,1016.21
2019-02-18T01:48:46.867Z,1016.19
2019-02-18T01:49:46.750Z,1016.25
2019-02-18T01:50:46.744Z,1016.25
2019-02-18T01:51:46.743Z,1016.21
2019-02-18T01:52:46.622Z,1016.20
2019-02-18T01:53:46.620Z,1016.24
2019-02-18T01:54:46.504Z,1016.22
2019-02-18T01:55:46.501Z,1016.20
2019-02-18T01:56:46.497Z,1016.20
2019-02-18T01:57:46.381Z,1016.21
2019-02-18T01:58:46.381Z,1016.16
2019-02-18T01:59:46.263Z,1016.15
2019-02-18T02:00:46.262Z,1016.15
2019-02-18T02:01:46.223Z,1016.13
2019-02-18T02:02:46.140Z,1016.14
2019-02-18T02:03:46.142Z,1016.14
2019-02-18T02:04:46.022Z,1016.14
2019-02-18T02:05:46.018Z,1016.12
2019-02-18T02:06:45.899Z,1016.10
2019-02-18T02:07:55.478Z,1016.08
2019-02-18T02:08:45.903Z,1016.09
2019-02-18T02:09:45.781Z,1016.11
2019-02-18T02:10:45.779Z,1016.08
2019-02-18T02:11:45.662Z,1016.05
2019-02-18T02:12:45.658Z,1016.05
2019-02-18T02:13:45.657Z,1016.05
2019-02-18T02:14:45.538Z,1016.06
2019-02-18T02:15:45.535Z,1016.06
2019-02-18T02:16:45.426Z,1016.09
2019-02-18T02:17:45.421Z,1016.05
2019-02-18T02:18:45.423Z,1016.05
2019-02-18T02:19:45.299Z,1016.04
2019-02-18T02:20:45.299Z,1016.01
2019-02-18T02:21:45.180Z,1016.02
2019-02-18T02:22:45.176Z,1016.03
2019-02-18T02:23:45.176Z,1016.02
2019-02-18T02:24:45.065Z,1016.03
2019-02-18T02:25:45.062Z,1016.08
2019-02-18T02:26:44.935Z,1016.07
2019-02-18T02:27:44.937Z,1016.06
2019-02-18T02:28:44.935Z,1016.03
2019-02-18T02:29:44.857Z,1016.03
2019-02-18T02:30:44.920Z,1015.98
2019-02-18T02:31:44.694Z,1016.04
2019-02-18T02:32:44.696Z,1016.04
2019-02-18T02:33:44.696Z,1016.02
2019-02-18T02:34:44.573Z,1016.04
2019-02-18T02:35:44.573Z,1016.05
2019-02-18T02:36:44.456Z,1016.03
2019-02-18T02:37:44.453Z,1015.99
2019-02-18T02:38:44.449Z,1015.98
2019-02-18T02:39:44.339Z,1015.96
2019-02-18T02:40:44.334Z,1015.94
2019-02-18T02:41:44.213Z,1015.98
2019-02-18T02:42:44.215Z,1015.94
2019-02-18T02:43:44.174Z,1015.93
2019-02-18T02:44:48.307Z,1015.95
2019-02-18T02:45:44.094Z,1015.92
2019-02-18T02:46:43.975Z,1015.92
2019-02-18T02:47:43.972Z,1015.90
2019-02-18T02:48:43.855Z,1015.91
2019-02-18T02:49:43.852Z,1015.92
2019-02-18T02:50:43.852Z,1015.91
2019-02-18T02:51:43.728Z,1015.89
2019-02-18T02:52:43.730Z,1015.91
2019-02-18T02:53:43.613Z,1015.90
2019-02-18T02:54:43.611Z,1015.96
2019-02-18T02:55:43.608Z,1015.88
2019-02-18T02:56:43.492Z,1015.92
2019-02-18T02:57:43.517Z,1015.91
2019-02-18T02:58:43.368Z,1015.92
2019-02-18T02:59:43.367Z,1015.95
2019-02-18T03:00:43.376Z,1015.97
2019-02-18T03:01:43.253Z,1015.96
2019-02-18T03:02:43.249Z,1015.93
2019-02-18T03:03:43.128Z,1015.99
2019-02-18T03:04:43.129Z,1015.93
2019-02-18T03:05:43.127Z,1015.91
2019-02-18T03:06:43.022Z,1015.94
2019-02-18T03:07:43.006Z,1015.90
2019-02-18T03:08:42.891Z,1015.85
2019-02-18T03:09:42.888Z,1015.92
2019-02-18T03:10:42.885Z,1015.89
2019-02-18T03:11:42.766Z,1015.90
2019-02-18T03:12:42.768Z,1015.90
2019-02-18T03:13:42.648Z,1015.85
2019-02-18T03:14:42.698Z,1015.86
2019-02-18T03:15:42.608Z,1015.87
2019-02-18T03:16:42.522Z,1015.86
2019-02-18T03:17:42.532Z,1015.88
2019-02-18T03:18:42.408Z,1015.85
2019-02-18T03:19:42.405Z,1015.81
2019-02-18T03:20:42.375Z,1015.84
2019-02-18T03:21:42.283Z,1015.82
2019-02-18T03:22:42.283Z,1015.82
2019-02-18T03:23:42.162Z,1015.84
2019-02-18T03:24:42.185Z,1015.85
2019-02-18T03:25:42.042Z,1015.82
2019-02-18T03:26:42.043Z,1015.80
2019-02-18T03:27:42.042Z,1015.78
2019-02-18T03:28:41.922Z,1015.80
2019-02-18T03:29:41.924Z,1015.80
2019-02-18T03:30:41.845Z,1015.81
2019-02-18T03:31:41.810Z,1015.81
2019-02-18T03:32:41.803Z,1015.79
2019-02-18T03:33:41.688Z,1015.78
2019-02-18T03:34:41.690Z,1015.76
2019-02-18T03:35:41.571Z,1015.78
2019-02-18T03:36:41.561Z,1015.81
2019-02-18T03:37:41.560Z,1015.79
2019-02-18T03:38:41.445Z,1015.83
2019-02-18T03:39:41.439Z,1015.80
2019-02-18T03:40:41.322Z,1015.77
2019-02-18T03:41:41.327Z,1015.80
2019-02-18T03:42:41.320Z,1015.77
2019-02-18T03:43:41.210Z,1015.77
2019-02-18T03:44:41.199Z,1015.77
2019-02-18T03:45:41.083Z,1015.76
2019-02-18T03:46:41.082Z,1015.76
2019-02-18T03:47:41.041Z,1015.79
2019-02-18T03:48:40.958Z,1015.77
2019-02-18T03:49:40.958Z,1015.73
2019-02-18T03:50:40.837Z,1015.73
2019-02-18T03:51:40.838Z,1015.74
2019-02-18T03:52:40.729Z,1015.76
2019-02-18T03:53:40.718Z,1015.77
2019-02-18T03:54:40.718Z,1015.74
2019-02-18T03:55:40.598Z,1015.73
2019-02-18T03:56:40.594Z,1015.72
2019-02-18T03:57:40.473Z,1015.75
2019-02-18T03:58:40.477Z,1015.72
2019-02-18T03:59:40.480Z,1015.71
2019-02-18T04:00:40.359Z,1015.69
2019-02-18T04:01:40.359Z,1015.77
2019-02-18T04:02:40.235Z,1015.74
2019-02-18T04:03:40.246Z,1015.74
2019-02-18T04:04:40.235Z,1015.74
2019-02-18T04:05:40.136Z,1015.79
2019-02-18T04:06:40.116Z,1015.78
2019-02-18T04:07:39.995Z,1015.75
2019-02-18T04:08:42.832Z,1015.75
2019-02-18T04:09:39.992Z,1015.76
2019-02-18T04:10:39.871Z,1015.73
2019-02-18T04:11:39.875Z,1015.75
2019-02-18T04:12:39.752Z,1015.74
2019-02-18T04:13:39.752Z,1015.72
2019-02-18T04:14:39.716Z,1015.71
2019-02-18T04:15:39.631Z,1015.66
2019-02-18T04:16:39.633Z,1015.69
2019-02-18T04:17:39.512Z,1015.65
2019-02-18T04:18:39.513Z,1015.71
2019-02-18T04:19:39.397Z,1015.66
2019-02-18T04:20:39.392Z,1015.69
2019-02-18T04:21:39.392Z,1015.65
2019-02-18T04:22:39.269Z,1015.68
2019-02-18T04:23:39.279Z,1015.68
2019-02-18T04:24:39.151Z,1015.71
2019-02-18T04:25:39.148Z,1015.67
2019-02-18T04:26:39.148Z,1015.65
2019-02-18T04:27:39.028Z,1015.67
2019-02-18T04:28:39.030Z,1015.69
2019-02-18T04:29:38.914Z,1015.70
2019-02-18T04:30:38.915Z,1015.68
2019-02-18T04:31:38.909Z,1015.70
2019-02-18T04:32:38.791Z,1015.67
2019-02-18T04:33:38.792Z,1015.68
2019-02-18T04:34:38.670Z,1015.67
2019-02-18T04:35:38.667Z,1015.65
2019-02-18T04:36:38.663Z,1015.67
2019-02-18T04:37:38.549Z,1015.70
2019-02-18T04:38:38.551Z,1015.67
2019-02-18T04:39:38.438Z,1015.67
2019-02-18T04:40:38.424Z,1015.66
2019-02-18T04:41:38.307Z,1015.72
2019-02-18T04:42:38.309Z,1015.69
2019-02-18T04:43:38.306Z,1015.73
2019-02-18T04:44:38.189Z,1015.72
2019-02-18T04:45:38.188Z,1015.68
2019-02-18T04:46:38.066Z,1015.67
2019-02-18T04:47:38.069Z,1015.75
2019-02-18T04:48:38.065Z,1015.66
2019-02-18T04:49:37.950Z,1015.66
2019-02-18T04:50:37.942Z,1015.69
2019-02-18T04:51:37.827Z,1015.63
2019-02-18T04:52:37.829Z,1015.69
2019-02-18T04:53:37.826Z,1015.58
2019-02-18T04:54:37.709Z,1015.68
2019-02-18T04:55:37.703Z,1015.70
2019-02-18T04:56:37.584Z,1015.72
2019-02-18T04:57:37.583Z,1015.72
2019-02-18T04:58:37.464Z,1015.73
2019-02-18T04:59:37.466Z,1015.74
2019-02-18T05:00:37.478Z,1015.74
2019-02-18T05:01:37.355Z,1015.73
2019-02-18T05:02:37.381Z,1015.71
2019-02-18T05:03:37.225Z,1015.70
2019-02-18T05:04:37.221Z,1015.72
2019-02-18T05:05:37.223Z,1015.67
2019-02-18T05:06:37.103Z,1015.70
2019-02-18T05:07:37.109Z,1015.68
2019-02-18T05:08:36.985Z,1015.67
2019-02-18T05:09:39.722Z,1015.70
2019-02-18T05:10:36.982Z,1015.65
2019-02-18T05:11:36.864Z,1015.65
2019-02-18T05:12:36.869Z,1015.64
2019-02-18T05:13:36.742Z,1015.68
2019-02-18T05:14:36.740Z,1015.64
2019-02-18T05:15:36.625Z,1015.60
2019-02-18T05:16:36.625Z,1015.63
2019-02-18T05:17:36.620Z,1015.62
2019-02-18T05:18:36.499Z,1015.65
2019-02-18T05:19:36.511Z,1015.61
2019-02-18T05:20:36.376Z,1015.64
2019-02-18T05:21:36.376Z,1015.65
2019-02-18T05:22:36.381Z,1015.65
2019-02-18T05:23:36.260Z,1015.66
2019-02-18T05:24:36.261Z,1015.62
2019-02-18T05:25:36.139Z,1015.63
2019-02-18T05:26:36.137Z,1015.65
2019-02-18T05:27:36.144Z,1015.67
2019-02-18T05:28:36.016Z,1015.65
2019-02-18T05:29:36.014Z,1015.63
2019-02-18T05:30:35.898Z,1015.66
2019-02-18T05:31:35.894Z,1015.62
2019-02-18T05:32:35.776Z,1015.61
2019-02-18T05:33:35.776Z,1015.59
2019-02-18T05:34:35.840Z,1015.58
2019-02-18T05:35:35.661Z,1015.58
2019-02-18T05:36:35.661Z,1015.59
2019-02-18T05:37:35.536Z,1015.61
2019-02-18T05:38:35.540Z,1015.61
2019-02-18T05:39:35.537Z,1015.62
2019-02-18T05:40:35.417Z,1015.60
2019-02-18T05:41:35.417Z,1015.58
2019-02-18T05:42:35.297Z,1015.60
2019-02-18T05:43:35.296Z,1015.56
2019-02-18T05:44:35.258Z,1015.55
2019-02-18T05:45:35.181Z,1015.55
2019-02-18T05:46:35.175Z,1015.58
2019-02-18T05:47:35.056Z,1015.58
2019-02-18T05:48:35.052Z,1015.58
2019-02-18T05:49:34.947Z,1015.58
2019-02-18T05:50:34.933Z,1015.59
2019-02-18T05:51:34.932Z,1015.55
2019-02-18T05:52:34.815Z,1015.61
2019-02-18T05:53:34.814Z,1015.58
2019-02-18T05:54:34.695Z,1015.62
2019-02-18T05:55:34.693Z,1015.61
2019-02-18T05:56:34.690Z,1015.62
2019-02-18T05:57:34.577Z,1015.54
2019-02-18T05:58:34.571Z,1015.56
2019-02-18T05:59:34.451Z,1015.58
2019-02-18T06:00:34.460Z,1015.55
2019-02-18T06:01:34.450Z,1015.58
2019-02-18T06:02:34.331Z,1015.55
2019-02-18T06:03:34.336Z,1015.53
2019-02-18T06:04:34.214Z,1015.54
2019-02-18T06:05:34.211Z,1015.54
2019-02-18T06:06:34.086Z,1015.52
2019-02-18T06:07:34.089Z,1015.53
2019-02-18T06:08:34.102Z,1015.55
2019-02-18T06:09:33.969Z,1015.53
2019-02-18T06:10:33.967Z,1015.56
2019-02-18T06:11:33.846Z,1015.51
2019-02-18T06:12:33.848Z,1015.53
2019-02-18T06:13:33.809Z,1015.49
2019-02-18T06:14:33.731Z,1015.46
2019-02-18T06:15:33.736Z,1015.46
2019-02-18T06:16:33.609Z,1015.49
2019-02-18T06:17:33.604Z,1015.44
2019-02-18T06:18:33.487Z,1015.47
2019-02-18T06:19:33.489Z,1015.43
2019-02-18T06:20:33.494Z,1015.45
2019-02-18T06:21:33.365Z,1015.41
2019-02-18T06:22:33.365Z,1015.44
2019-02-18T06:23:33.251Z,1015.42
2019-02-18T06:24:33.245Z,1015.40
2019-02-18T06:25:33.207Z,1015.38
2019-02-18T06:26:33.122Z,1015.36
2019-02-18T06:27:33.133Z,1015.35
2019-02-18T06:28:33.006Z,1015.37
2019-02-18T06:29:33.009Z,1015.38
2019-02-18T06:30:32.885Z,1015.40
2019-02-18T06:31:32.884Z,1015.35
2019-02-18T06:32:32.883Z,1015.35
2019-02-18T06:33:32.767Z,1015.32
2019-02-18T06:34:32.764Z,1015.31
2019-02-18T06:35:32.647Z,1015.29
2019-02-18T06:36:32.643Z,1015.27
2019-02-18T06:37:32.611Z,1015.26
2019-02-18T06:38:32.528Z,1015.25
2019-02-18T06:39:40.756Z,1015.26
2019-02-18T06:40:32.400Z,1015.29
2019-02-18T06:41:32.399Z,1015.26
2019-02-18T06:42:32.282Z,1015.32
2019-02-18T06:43:32.279Z,1015.28
2019-02-18T06:44:32.283Z,1015.25
2019-02-18T06:45:32.163Z,1015.28
2019-02-18T06:46:32.158Z,1015.27
2019-02-18T06:47:32.042Z,1015.33
2019-02-18T06:48:32.038Z,1015.29
2019-02-18T06:49:32.001Z,1015.28
2019-02-18T06:50:31.920Z,1015.30
2019-02-18T06:51:31.923Z,1015.22
2019-02-18T06:52:32.696Z,1015.37
2019-02-18T06:53:31.800Z,1015.36
2019-02-18T06:54:31.678Z,1015.43
2019-02-18T06:55:31.679Z,1015.41
2019-02-18T06:56:31.682Z,1015.44
2019-02-18T06:57:31.556Z,1015.41
2019-02-18T06:58:31.556Z,1015.43
2019-02-18T06:59:31.436Z,1015.41
2019-02-18T07:00:31.436Z,1015.46
2019-02-18T07:01:31.436Z,1015.48
2019-02-18T07:02:31.318Z,1015.45
2019-02-18T07:03:31.326Z,1015.44
2019-02-18T07:04:31.201Z,1015.48
2019-02-18T07:05:31.199Z,1015.46
2019-02-18T07:06:31.073Z,1015.45
2019-02-18T07:07:31.081Z,1015.48
2019-02-18T07:08:31.074Z,1015.48
2019-02-18T07:09:30.956Z,1015.52
2019-02-18T07:10:30.960Z,1015.52
2019-02-18T07:11:30.835Z,1015.53
2019-02-18T07:12:30.837Z,1015.54
2019-02-18T07:13:30.841Z,1015.59
2019-02-18T07:14:30.712Z,1015.61
2019-02-18T07:15:30.713Z,1015.64
2019-02-18T07:16:30.597Z,1015.60
2019-02-18T07:17:30.610Z,1015.62
2019-02-18T07:18:30.559Z,1015.63
2019-02-18T07:19:30.477Z,1015.64
2019-02-18T07:20:30.475Z,1015.65
2019-02-18T07:21:30.352Z,1015.65
2019-02-18T07:22:30.351Z,1015.59
2019-02-18T07:23:30.236Z,1015.65
2019-02-18T07:24:30.232Z,1015.64
2019-02-18T07:25:30.235Z,1015.60
2019-02-18T07:26:30.108Z,1015.58
2019-02-18T07:27:30.110Z,1015.64
2019-02-18T07:28:29.989Z,1015.57
2019-02-18T07:29:29.988Z,1015.57
2019-02-18T07:30:29.869Z,1015.60
2019-02-18T07:31:29.884Z,1015.60
2019-02-18T07:32:29.882Z,1015.55
2019-02-18T07:33:29.834Z,1015.57
2019-02-18T07:34:29.756Z,1015.56
2019-02-18T07:35:29.635Z,1015.56
2019-02-18T07:36:29.640Z,1015.59
2019-02-18T07:37:29.630Z,1015.54
2019-02-18T07:38:29.515Z,1015.54
2019-02-18T07:39:29.515Z,1015.51
2019-02-18T07:40:29.393Z,1015.52
2019-02-18T07:41:29.394Z,1015.48
2019-02-18T07:42:29.275Z,1015.50
2019-02-18T07:43:29.268Z,1015.49
2019-02-18T07:44:29.269Z,1015.50
2019-02-18T07:45:29.150Z,1015.50
2019-02-18T07:46:29.145Z,1015.48
2019-02-18T07:47:29.029Z,1015.51
2019-02-18T07:48:29.025Z,1015.52
2019-02-18T07:49:29.032Z,1015.53
2019-02-18T07:50:28.911Z,1015.55
2019-02-18T07:51:28.907Z,1015.49
2019-02-18T07:52:28.786Z,1015.50
2019-02-18T07:53:28.783Z,1015.53
2019-02-18T07:54:28.779Z,1015.54
2019-02-18T07:55:28.663Z,1015.51
2019-02-18T07:56:28.667Z,1015.49
2019-02-18T07:57:28.544Z,1015.47
2019-02-18T07:58:28.542Z,1015.44
2019-02-18T07:59:28.428Z,1015.44
2019-02-18T08:00:28.424Z,1015.46
2019-02-18T08:01:28.428Z,1015.47
2019-02-18T08:02:28.306Z,1015.46
2019-02-18T08:03:28.304Z,1015.35
2019-02-18T08:04:28.183Z,1015.46
2019-02-18T08:05:28.185Z,1015.48
2019-02-18T08:06:28.182Z,1015.50
2019-02-18T08:07:28.070Z,1015.48
2019-02-18T08:08:28.135Z,1015.46
2019-02-18T08:09:27.946Z,1015.42
2019-02-18T08:10:27.943Z,1015.44
2019-02-18T08:11:27.939Z,1015.40
2019-02-18T08:12:27.820Z,1015.41
2019-02-18T08:13:27.821Z,1015.40
2019-02-18T08:14:27.707Z,1015.44
2019-02-18T08:15:27.700Z,1015.44
2019-02-18T08:16:27.701Z,1015.43
2019-02-18T08:17:27.581Z,1015.44
2019-02-18T08:18:27.579Z,1015.46
2019-02-18T08:19:27.458Z,1015.43
2019-02-18T08:20:27.462Z,1015.44
2019-02-18T08:21:27.460Z,1015.45
2019-02-18T08:22:27.339Z,1015.44
2019-02-18T08:23:27.341Z,1015.45
2019-02-18T08:24:27.221Z,1015.48
2019-02-18T08:25:27.219Z,1015.41
2019-02-18T08:26:27.180Z,1015.45
2019-02-18T08:27:27.098Z,1015.46
2019-02-18T08:28:27.099Z,1015.48
2019-02-18T08:29:26.976Z,1015.42
2019-02-18T08:30:26.976Z,1015.44
2019-02-18T08:31:26.983Z,1015.48
2019-02-18T08:32:26.858Z,1015.47
2019-02-18T08:33:26.858Z,1015.48
2019-02-18T08:34:26.739Z,1015.44
2019-02-18T08:35:26.735Z,1015.44
2019-02-18T08:36:26.737Z,1015.42
2019-02-18T08:37:26.616Z,1015.43
2019-02-18T08:38:26.612Z,1015.41
2019-02-18T08:39:26.492Z,1015.39
2019-02-18T08:40:26.496Z,1015.36
2019-02-18T08:41:26.504Z,1015.39
2019-02-18T08:42:26.372Z,1015.32
2019-02-18T08:43:26.372Z,1015.42
2019-02-18T08:44:26.252Z,1015.43
2019-02-18T08:45:26.258Z,1015.38
2019-02-18T08:46:26.256Z,1015.33
2019-02-18T08:47:26.133Z,1015.33
2019-02-18T08:48:26.135Z,1015.35
2019-02-18T08:49:26.010Z,1015.31
2019-02-18T08:50:26.014Z,1015.31
2019-02-18T08:51:26.014Z,1015.31
2019-02-18T08:52:25.895Z,1015.29
2019-02-18T08:53:25.900Z,1015.27
2019-02-18T08:54:25.773Z,1015.31
2019-02-18T08:55:25.769Z,1015.25
2019-02-18T08:56:25.768Z,1015.23
2019-02-18T08:57:25.654Z,1015.25
2019-02-18T08:58:25.653Z,1015.32
2019-02-18T08:59:25.652Z,1015.29
2019-02-18T09:00:25.531Z,1015.32
2019-02-18T09:01:25.538Z,1015.34
2019-02-18T09:02:25.412Z,1015.29
2019-02-18T09:03:25.411Z,1015.32
2019-02-18T09:04:27.989Z,1015.29
2019-02-18T09:05:25.294Z,1015.29
2019-02-18T09:06:25.292Z,1015.30
2019-02-18T09:07:25.174Z,1015.29
2019-02-18T09:08:25.173Z,1015.31
2019-02-18T09:09:25.167Z,1015.26
2019-02-18T09:10:33.025Z,1015.29
2019-02-18T09:11:25.050Z,1015.29
2019-02-18T09:12:25.009Z,1015.28
2019-02-18T09:13:24.924Z,1015.29
2019-02-18T09:14:24.925Z,1015.28
2019-02-18T09:15:24.824Z,1015.32
2019-02-18T09:16:24.808Z,1015.33
2019-02-18T09:17:24.806Z,1015.31
2019-02-18T09:18:24.694Z,1015.28
2019-02-18T09:19:24.688Z,1015.25
2019-02-18T09:20:25.603Z,1015.25
2019-02-18T09:21:24.570Z,1015.25
2019-02-18T09:22:24.566Z,1015.25
2019-02-18T09:23:24.453Z,1015.26
2019-02-18T09:24:24.446Z,1015.27
2019-02-18T09:25:24.406Z,1015.23
2019-02-18T09:26:24.330Z,1015.25
2019-02-18T09:27:24.322Z,1015.26
2019-02-18T09:28:24.205Z,1015.25
2019-02-18T09:29:24.204Z,1015.26
2019-02-18T09:30:24.205Z,1015.32
2019-02-18T09:31:24.085Z,1015.28
2019-02-18T09:32:24.085Z,1015.30
2019-02-18T09:33:23.975Z,1015.33
2019-02-18T09:34:23.965Z,1015.30
2019-02-18T09:35:23.965Z,1015.30
2019-02-18T09:36:23.849Z,1015.29
2019-02-18T09:37:23.844Z,1015.35
2019-02-18T09:38:25.242Z,1015.33
2019-02-18T09:39:31.316Z,1015.32
2019-02-18T09:40:23.722Z,1015.26
2019-02-18T09:41:23.609Z,1015.29
2019-02-18T09:42:23.611Z,1015.27
2019-02-18T09:43:23.605Z,1015.27
2019-02-18T09:44:23.482Z,1015.27
2019-02-18T09:45:23.484Z,1015.25
2019-02-18T09:46:23.443Z,1015.26
2019-02-18T09:47:23.360Z,1015.27
2019-02-18T09:48:23.366Z,1015.25
2019-02-18T09:49:23.246Z,1015.31
2019-02-18T09:50:23.248Z,1015.22
2019-02-18T09:51:23.250Z,1015.24
2019-02-18T09:52:23.127Z,1015.25
2019-02-18T09:53:23.120Z,1015.28
2019-02-18T09:54:22.997Z,1015.27
2019-02-18T09:55:23.003Z,1015.24
2019-02-18T09:56:23.002Z,1015.24
2019-02-18T09:57:22.884Z,1015.29
2019-02-18T09:58:22.878Z,1015.26
2019-02-18T09:59:22.881Z,1015.30
2019-02-18T10:00:22.755Z,1015.31
2019-02-18T10:01:22.757Z,1015.29
2019-02-18T10:02:22.636Z,1015.27
2019-02-18T10:03:31.624Z,1015.25
2019-02-18T10:04:22.798Z,1015.24
2019-02-18T10:05:22.517Z,1015.23
2019-02-18T10:06:22.513Z,1015.21
2019-02-18T10:07:22.519Z,1015.19
2019-02-18T10:08:22.396Z,1015.18
2019-02-18T10:09:22.398Z,1015.21
2019-02-18T10:10:22.275Z,1015.16
2019-02-18T10:11:22.285Z,1015.16
2019-02-18T10:12:22.292Z,1015.11
2019-02-18T10:13:22.159Z,1015.06
2019-02-18T10:14:22.158Z,1015.11
2019-02-18T10:15:22.159Z,1015.12
2019-02-18T10:16:22.034Z,1015.09
2019-02-18T10:17:22.033Z,1015.09
2019-02-18T10:18:21.919Z,1015.08
2019-02-18T10:19:21.912Z,1015.05
2019-02-18T10:20:21.916Z,1015.09
2019-02-18T10:21:21.793Z,1015.08
2019-02-18T10:22:21.820Z,1015.07
2019-02-18T10:23:21.795Z,1015.07
2019-02-18T10:24:21.678Z,1015.05
2019-02-18T10:25:21.674Z,1015.10
2019-02-18T10:26:21.553Z,1015.08
2019-02-18T10:27:21.553Z,1015.03
2019-02-18T10:28:21.550Z,1015.06
2019-02-18T10:29:21.433Z,1014.99
2019-02-18T10:30:21.427Z,1015.02
2019-02-18T10:31:21.430Z,1014.95
2019-02-18T10:32:21.311Z,1014.93
2019-02-18T10:33:21.315Z,1014.96
2019-02-18T10:34:21.188Z,1014.99
2019-02-18T10:35:21.195Z,1014.98
2019-02-18T10:36:21.191Z,1014.99
2019-02-18T10:37:21.068Z,1014.98
2019-02-18T10:38:21.070Z,1014.99
2019-02-18T10:39:21.069Z,1014.97
2019-02-18T10:40:20.949Z,1014.97
2019-02-18T10:41:20.962Z,1014.98
2019-02-18T10:42:20.831Z,1014.99
2019-02-18T10:43:20.830Z,1014.95
2019-02-18T10:44:20.832Z,1014.94
2019-02-18T10:45:20.706Z,1014.93
2019-02-18T10:46:20.705Z,1014.92
2019-02-18T10:47:20.709Z,1014.92
2019-02-18T10:48:20.588Z,1014.85
2019-02-18T10:49:22.426Z,1014.84
2019-02-18T10:50:20.604Z,1014.83
2019-02-18T10:51:20.578Z,1014.86
2019-02-18T10:52:22.564Z,1014.76
2019-02-18T10:53:20.346Z,1014.77
2019-02-18T10:54:20.348Z,1014.74
2019-02-18T10:55:20.349Z,1014.77
2019-02-18T10:56:20.232Z,1014.73
2019-02-18T10:57:20.222Z,1014.74
2019-02-18T10:58:20.243Z,1014.71
2019-02-18T10:59:20.104Z,1014.72
2019-02-18T11:00:20.104Z,1014.74
2019-02-18T11:01:19.981Z,1014.73
2019-02-18T11:02:19.982Z,1014.73
2019-02-18T11:03:19.981Z,1014.78
2019-02-18T11:04:19.859Z,1014.75
2019-02-18T11:05:19.865Z,1014.68
2019-02-18T11:06:19.864Z,1014.75
2019-02-18T11:07:19.742Z,1014.73
2019-02-18T11:08:19.742Z,1014.71
2019-02-18T11:09:19.622Z,1014.72
2019-02-18T11:10:19.623Z,1014.70
2019-02-18T11:11:19.624Z,1014.69
2019-02-18T11:12:19.513Z,1014.71
2019-02-18T11:13:19.501Z,1014.71
2019-02-18T11:14:19.581Z,1014.71
2019-02-18T11:15:19.377Z,1014.65
2019-02-18T11:16:19.391Z,1014.65
2019-02-18T11:17:19.261Z,1014.67
2019-02-18T11:18:19.260Z,1014.65
2019-02-18T11:19:19.264Z,1014.64
2019-02-18T11:20:19.143Z,1014.62
2019-02-18T11:21:19.138Z,1014.63
2019-02-18T11:22:19.140Z,1014.62
2019-02-18T11:23:19.016Z,1014.61
2019-02-18T11:24:20.727Z,1014.59
2019-02-18T11:25:19.022Z,1014.61
2019-02-18T11:26:18.909Z,1014.62
2019-02-18T11:27:18.895Z,1014.58
2019-02-18T11:28:18.778Z,1014.59
2019-02-18T11:29:18.777Z,1014.57
2019-02-18T11:30:18.782Z,1014.56
2019-02-18T11:31:18.657Z,1014.53
2019-02-18T11:32:18.658Z,1014.53
2019-02-18T11:33:18.656Z,1014.54
2019-02-18T11:34:18.536Z,1014.50
2019-02-18T11:35:18.534Z,1014.50
2019-02-18T11:36:18.416Z,1014.48
2019-02-18T11:37:18.419Z,1014.46
2019-02-18T11:38:18.415Z,1014.50
2019-02-18T11:39:18.294Z,1014.47
2019-02-18T11:40:18.299Z,1014.45
2019-02-18T11:41:27.116Z,1014.45
2019-02-18T11:42:18.174Z,1014.41
2019-02-18T11:43:18.174Z,1014.37
2019-02-18T11:44:18.136Z,1014.33
2019-02-18T11:45:18.057Z,1014.31
2019-02-18T11:46:18.054Z,1014.31
2019-02-18T11:47:18.050Z,1014.27
2019-02-18T11:48:17.932Z,1014.27
2019-02-18T11:49:17.936Z,1014.25
2019-02-18T11:50:17.821Z,1014.23
2019-02-18T11:51:17.876Z,1014.24
2019-02-18T11:52:17.812Z,1014.24
2019-02-18T11:53:17.694Z,1014.23
2019-02-18T11:54:17.690Z,1014.19
2019-02-18T11:55:17.573Z,1014.17
2019-02-18T11:56:17.574Z,1014.24
2019-02-18T11:57:17.571Z,1014.17
2019-02-18T11:58:17.454Z,1014.17
2019-02-18T11:59:24.321Z,1014.19
2019-02-18T12:00:17.468Z,1014.21
2019-02-18T12:01:17.335Z,1014.15
2019-02-18T12:02:17.335Z,1014.18
2019-02-18T12:03:17.292Z,1014.13
2019-02-18T12:04:17.209Z,1014.14
2019-02-18T12:05:17.208Z,1014.10